createdAt,value
2019-05-21T00:00:10.547Z,10.90
2019-05-21T00:02:38.952Z,10.90
2019-05-21T00:05:07.419Z,10.90
2019-05-21T00:07:35.375Z,10.80
2019-05-21T00:10:03.939Z,10.80
2019-05-21T00:12:31.867Z,10.80
2019-05-21T00:15:00.101Z,10.70
2019-05-21T00:17:28.092Z,10.70
2019-05-21T00:19:56.375Z,10.60
2019-05-21T00:22:24.244Z,10.70
2019-05-21T00:24:52.329Z,10.60
2019-05-21T00:27:20.355Z,10.70
2019-05-21T00:30:24.176Z,10.60
2019-05-21T00:33:28.318Z,10.60
2019-05-21T00:36:33.511Z,10.60
2019-05-21T00:39:37.585Z,10.60
2019-05-21T00:42:05.056Z,10.60
2019-05-21T00:44:41.251Z,10.60
2019-05-21T00:47:11.319Z,10.60
2019-05-21T00:49:39.544Z,10.50
2019-05-21T00:52:09.135Z,10.50
2019-05-21T00:54:37.574Z,10.50
2019-05-21T00:57:06.052Z,10.50
2019-05-21T00:59:34.357Z,10.40
2019-05-21T01:02:03.030Z,10.50
2019-05-21T01:04:31.275Z,10.50
2019-05-21T01:06:59.471Z,10.50
2019-05-21T01:09:27.642Z,10.40
2019-05-21T01:11:55.860Z,10.40
2019-05-21T01:14:24.080Z,10.40
2019-05-21T01:16:51.914Z,10.50
2019-05-21T01:19:19.744Z,10.50
2019-05-21T01:21:47.616Z,10.50
2019-05-21T01:24:15.828Z,10.50
2019-05-21T01:26:43.973Z,10.50
2019-05-21T01:29:12.481Z,10.40
2019-05-21T01:31:40.346Z,10.50
2019-05-21T01:34:11.315Z,10.50
2019-05-21T01:36:37.872Z,10.50
2019-05-21T01:39:05.909Z,10.50
2019-05-21T01:41:34.225Z,10.50
2019-05-21T01:44:02.735Z,10.50
2019-05-21T01:46:31.741Z,10.50
2019-05-21T01:48:59.596Z,10.60
2019-05-21T01:51:27.745Z,10.60
2019-05-21T01:53:55.615Z,10.50
2019-05-21T01:56:23.428Z,10.50
2019-05-21T01:58:51.429Z,10.60
2019-05-21T02:01:19.843Z,10.60
2019-05-21T02:03:48.162Z,10.70
2019-05-21T02:06:16.575Z,10.60
2019-05-21T02:08:45.610Z,10.60
2019-05-21T02:11:13.541Z,10.60
2019-05-21T02:13:41.588Z,10.60
2019-05-21T02:16:09.625Z,10.60
2019-05-21T02:18:37.679Z,10.60
2019-05-21T02:21:05.570Z,10.60
2019-05-21T02:23:33.484Z,10.60
2019-05-21T02:26:01.728Z,10.60
2019-05-21T02:28:29.629Z,10.60
2019-05-21T02:30:57.557Z,10.60
2019-05-21T02:33:25.506Z,10.60
2019-05-21T02:35:54.884Z,10.70
2019-05-21T02:38:23.100Z,10.60
2019-05-21T02:40:51.005Z,10.60
2019-05-21T02:43:18.862Z,10.70
2019-05-21T02:45:46.762Z,10.70
2019-05-21T02:48:14.968Z,10.70
2019-05-21T02:50:42.858Z,10.70
2019-05-21T02:53:11.120Z,10.70
2019-05-21T02:55:38.977Z,10.80
2019-05-21T02:58:07.667Z,10.70
2019-05-21T03:00:51.560Z,10.70
2019-05-21T03:03:20.882Z,10.80
2019-05-21T03:05:48.706Z,10.80
2019-05-21T03:08:16.644Z,10.70
2019-05-21T03:10:44.912Z,10.70
2019-05-21T03:13:12.941Z,10.60
2019-05-21T03:15:40.783Z,10.60
2019-05-21T03:18:09.284Z,10.70
2019-05-21T03:20:37.488Z,10.70
2019-05-21T03:23:05.757Z,10.70
2019-05-21T03:25:33.644Z,10.70
2019-05-21T03:28:02.098Z,10.70
2019-05-21T03:30:30.043Z,10.70
2019-05-21T03:32:57.896Z,10.70
2019-05-21T03:35:25.908Z,10.70
2019-05-21T03:37:54.159Z,10.70
2019-05-21T03:40:22.096Z,10.70
2019-05-21T03:42:50.336Z,10.70
2019-05-21T03:45:18.599Z,10.70
2019-05-21T03:47:46.494Z,10.70
2019-05-21T03:50:14.747Z,10.70
2019-05-21T03:52:42.671Z,10.80
2019-05-21T03:55:10.705Z,10.70
2019-05-21T03:57:38.672Z,10.70
2019-05-21T04:00:07.380Z,10.70
2019-05-21T04:02:35.679Z,10.70
2019-05-21T04:05:04.713Z,10.70
2019-05-21T04:07:32.591Z,10.80
2019-05-21T04:10:00.647Z,10.70
2019-05-21T04:12:29.227Z,10.70
2019-05-21T04:15:01.491Z,10.80
2019-05-21T04:17:48.217Z,10.80
2019-05-21T04:20:16.066Z,10.80
2019-05-21T04:22:53.198Z,10.80
2019-05-21T04:25:22.812Z,10.80
2019-05-21T04:27:51.513Z,10.80
2019-05-21T04:30:19.813Z,10.80
2019-05-21T04:32:48.132Z,10.90
2019-05-21T04:35:16.602Z,10.90
2019-05-21T04:37:45.161Z,10.90
2019-05-21T04:40:13.290Z,10.90
2019-05-21T04:42:41.328Z,10.90
2019-05-21T04:45:10.421Z,10.90
2019-05-21T04:47:40.319Z,10.90
2019-05-21T04:50:08.807Z,10.90
2019-05-21T04:52:37.091Z,10.90
2019-05-21T04:55:05.416Z,10.90
2019-05-21T04:57:37.175Z,10.90
2019-05-21T05:00:03.967Z,10.90
2019-05-21T05:02:32.034Z,11.00
2019-05-21T05:05:00.146Z,11.00
2019-05-21T05:07:29.058Z,11.00
2019-05-21T05:09:57.130Z,11.00
2019-05-21T05:12:25.214Z,11.00
2019-05-21T05:14:53.418Z,11.10
2019-05-21T05:17:21.948Z,11.00
2019-05-21T05:19:50.429Z,11.10
2019-05-21T05:22:18.526Z,11.10
2019-05-21T05:24:46.567Z,11.10
2019-05-21T05:27:14.991Z,11.20
2019-05-21T05:29:43.820Z,11.20
2019-05-21T05:32:11.982Z,11.20
2019-05-21T05:34:40.061Z,11.20
2019-05-21T05:37:08.687Z,11.20
2019-05-21T05:39:36.891Z,11.20
2019-05-21T05:42:04.990Z,11.20
2019-05-21T05:44:33.254Z,11.20
2019-05-21T05:47:01.455Z,11.20
2019-05-21T05:49:34.626Z,11.30
2019-05-21T05:52:02.921Z,11.30
2019-05-21T05:54:31.774Z,11.30
2019-05-21T05:56:59.993Z,11.30
2019-05-21T05:59:28.121Z,11.40
2019-05-21T06:01:56.621Z,11.40
2019-05-21T06:04:24.657Z,11.40
2019-05-21T06:06:52.574Z,11.50
2019-05-21T06:09:20.475Z,11.50
2019-05-21T06:11:49.164Z,11.60
2019-05-21T06:14:17.453Z,11.60
2019-05-21T06:16:46.179Z,11.60
2019-05-21T06:19:14.500Z,11.60
2019-05-21T06:21:42.788Z,11.70
2019-05-21T06:24:13.504Z,11.80
2019-05-21T06:26:40.886Z,11.80
2019-05-21T06:29:09.245Z,11.80
2019-05-21T06:31:40.723Z,11.80
2019-05-21T06:34:08.620Z,11.80
2019-05-21T06:36:38.187Z,11.70
2019-05-21T06:39:07.397Z,11.70
2019-05-21T06:41:35.433Z,11.70
2019-05-21T06:44:03.709Z,11.70
2019-05-21T06:46:32.135Z,11.70
2019-05-21T06:49:00.447Z,11.80
2019-05-21T06:51:28.998Z,11.80
2019-05-21T06:53:57.334Z,11.80
2019-05-21T06:56:25.381Z,11.80
2019-05-21T06:58:53.936Z,11.90
2019-05-21T07:01:28.226Z,11.90
2019-05-21T07:03:52.353Z,11.90
2019-05-21T07:06:20.322Z,11.90
2019-05-21T07:08:48.957Z,12.00
2019-05-21T07:11:17.047Z,12.00
2019-05-21T07:13:45.483Z,11.90
2019-05-21T07:16:13.844Z,12.00
2019-05-21T07:18:41.959Z,11.90
2019-05-21T07:21:09.932Z,11.80
2019-05-21T07:23:38.364Z,11.90
2019-05-21T07:26:06.542Z,11.90
2019-05-21T07:28:34.709Z,11.90
2019-05-21T07:31:02.766Z,11.80
2019-05-21T07:33:32.407Z,11.80
2019-05-21T07:36:00.552Z,11.90
2019-05-21T07:38:29.003Z,12.10
2019-05-21T07:40:57.199Z,12.20
2019-05-21T07:43:25.581Z,12.40
2019-05-21T07:45:53.596Z,12.60
2019-05-21T07:48:21.926Z,12.50
2019-05-21T07:50:50.141Z,12.50
2019-05-21T07:53:18.159Z,12.60
2019-05-21T07:55:46.885Z,12.60
2019-05-21T07:58:14.973Z,12.70
2019-05-21T08:00:43.563Z,12.70
2019-05-21T08:03:12.515Z,12.70
2019-05-21T08:05:40.537Z,12.70
2019-05-21T08:08:09.063Z,12.70
2019-05-21T08:10:37.288Z,12.70
2019-05-21T08:13:08.190Z,12.80
2019-05-21T08:15:36.498Z,12.90
2019-05-21T08:18:04.784Z,13.00
2019-05-21T08:20:33.618Z,13.20
2019-05-21T08:23:01.711Z,13.40
2019-05-21T08:25:29.657Z,13.50
2019-05-21T08:27:57.885Z,13.50
2019-05-21T08:30:26.033Z,13.40
2019-05-21T08:32:54.741Z,13.40
2019-05-21T08:35:22.985Z,13.40
2019-05-21T08:37:51.665Z,13.20
2019-05-21T08:40:20.133Z,13.30
2019-05-21T08:42:48.319Z,13.50
2019-05-21T08:45:17.058Z,13.60
2019-05-21T08:47:46.283Z,13.80
2019-05-21T08:50:16.054Z,14.00
2019-05-21T08:52:44.837Z,14.10
2019-05-21T08:55:15.469Z,14.10
2019-05-21T08:57:43.646Z,14.00
2019-05-21T09:00:13.544Z,13.90
2019-05-21T09:02:41.680Z,13.60
2019-05-21T09:05:10.072Z,13.30
2019-05-21T09:07:38.136Z,13.20
2019-05-21T09:10:06.918Z,13.20
2019-05-21T09:12:35.121Z,13.30
2019-05-21T09:15:03.299Z,13.50
2019-05-21T09:17:32.848Z,13.30
2019-05-21T09:20:03.552Z,13.40
2019-05-21T09:22:33.935Z,13.60
2019-05-21T09:25:03.570Z,13.90
2019-05-21T09:27:32.548Z,14.20
2019-05-21T09:30:00.961Z,14.50
2019-05-21T09:32:29.682Z,14.60
2019-05-21T09:35:02.029Z,14.90
2019-05-21T09:37:32.220Z,15.20
2019-05-21T09:40:00.535Z,15.40
2019-05-21T09:42:28.960Z,15.20
2019-05-21T09:44:57.054Z,14.90
2019-05-21T09:47:26.289Z,14.70
2019-05-21T09:49:54.354Z,14.40
2019-05-21T09:52:22.388Z,14.70
2019-05-21T09:54:50.579Z,14.70
2019-05-21T09:57:24.925Z,14.60
2019-05-21T09:59:59.565Z,15.00
2019-05-21T10:02:29.511Z,15.50
2019-05-21T10:04:58.573Z,15.90
2019-05-21T10:07:38.889Z,16.20
2019-05-21T10:09:57.630Z,16.20
2019-05-21T10:12:25.786Z,16.60
2019-05-21T10:14:54.366Z,15.90
2019-05-21T10:17:24.279Z,15.40
2019-05-21T10:19:52.287Z,15.00
2019-05-21T10:22:20.219Z,14.80
2019-05-21T10:24:48.316Z,14.60
2019-05-21T10:27:17.394Z,14.60
2019-05-21T10:29:45.555Z,14.90
2019-05-21T10:32:13.896Z,15.20
2019-05-21T10:34:41.924Z,15.20
2019-05-21T10:37:09.994Z,15.60
2019-05-21T10:39:38.037Z,16.30
2019-05-21T10:42:06.156Z,16.70
2019-05-21T10:44:34.342Z,16.60
2019-05-21T10:47:04.424Z,16.80
2019-05-21T10:49:32.899Z,16.90
2019-05-21T10:52:01.198Z,16.70
2019-05-21T10:54:31.929Z,16.60
2019-05-21T10:57:00.433Z,17.70
2019-05-21T10:59:28.843Z,17.80
2019-05-21T11:02:25.365Z,17.90
2019-05-21T11:04:57.603Z,17.80
2019-05-21T11:07:26.070Z,17.30
2019-05-21T11:09:54.056Z,17.00
2019-05-21T11:12:22.358Z,17.10
2019-05-21T11:14:50.821Z,17.30
2019-05-21T11:17:21.072Z,17.30
2019-05-21T11:19:49.196Z,17.40
2019-05-21T11:22:17.710Z,17.70
2019-05-21T11:24:46.138Z,17.70
2019-05-21T11:27:14.374Z,17.50
2019-05-21T11:29:42.856Z,17.70
2019-05-21T11:32:11.372Z,17.70
2019-05-21T11:34:39.676Z,17.20
2019-05-21T11:37:07.884Z,17.10
2019-05-21T11:39:36.356Z,17.30
2019-05-21T11:42:04.674Z,17.20
2019-05-21T11:44:32.667Z,17.20
2019-05-21T11:47:01.296Z,17.50
2019-05-21T11:49:30.120Z,18.10
2019-05-21T11:51:59.035Z,17.90
2019-05-21T11:54:30.806Z,18.00
2019-05-21T11:56:59.309Z,17.80
2019-05-21T11:59:29.153Z,17.60
2019-05-21T12:01:58.420Z,17.80
2019-05-21T12:04:30.472Z,18.00
2019-05-21T12:07:03.417Z,18.10
2019-05-21T12:09:32.874Z,17.40
2019-05-21T12:12:03.335Z,17.00
2019-05-21T12:14:31.494Z,16.70
2019-05-21T12:17:00.927Z,16.40
2019-05-21T12:19:30.147Z,16.80
2019-05-21T12:21:59.569Z,17.30
2019-05-21T12:24:28.137Z,17.40
2019-05-21T12:26:56.805Z,17.60
2019-05-21T12:29:25.147Z,18.00
2019-05-21T12:31:53.690Z,17.70
2019-05-21T12:34:22.990Z,17.30
2019-05-21T12:36:51.790Z,17.40
2019-05-21T12:39:20.905Z,17.20
2019-05-21T12:41:49.451Z,17.40
2019-05-21T12:44:18.183Z,17.10
2019-05-21T12:46:47.150Z,17.10
2019-05-21T12:49:16.230Z,17.30
2019-05-21T12:51:44.350Z,17.30
2019-05-21T12:54:12.316Z,16.80
2019-05-21T12:56:41.404Z,16.30
2019-05-21T12:59:09.853Z,16.70
2019-05-21T13:01:38.057Z,17.40
2019-05-21T13:04:06.215Z,17.90
2019-05-21T13:06:34.545Z,17.70
2019-05-21T13:09:07.758Z,18.10
2019-05-21T13:11:35.695Z,17.60
2019-05-21T13:14:04.289Z,17.50
2019-05-21T13:16:32.150Z,17.00
2019-05-21T13:19:04.257Z,17.20
2019-05-21T13:21:35.208Z,18.10
2019-05-21T13:24:15.047Z,18.20
2019-05-21T13:26:45.989Z,18.80
2019-05-21T13:32:49.082Z,18.30
2019-05-21T13:35:17.599Z,17.90
2019-05-21T13:37:45.738Z,18.30
2019-05-21T13:40:19.602Z,18.50
2019-05-21T13:42:48.064Z,18.50
2019-05-21T13:45:18.273Z,18.70
2019-05-21T13:47:48.979Z,17.80
2019-05-21T13:50:17.134Z,18.00
2019-05-21T13:52:45.632Z,17.80
2019-05-21T13:55:14.229Z,17.60
2019-05-21T13:57:43.573Z,17.80
2019-05-21T14:00:15.397Z,17.70
2019-05-21T14:02:43.526Z,17.10
2019-05-21T14:05:12.174Z,17.50
2019-05-21T14:07:40.589Z,18.10
2019-05-21T14:10:17.103Z,18.20
2019-05-21T14:12:40.012Z,18.30
2019-05-21T14:15:08.916Z,19.10
2019-05-21T14:17:37.185Z,19.70
2019-05-21T14:20:07.366Z,19.00
2019-05-21T14:22:37.719Z,18.00
2019-05-21T14:25:06.840Z,18.00
2019-05-21T14:27:44.462Z,18.00
2019-05-21T14:30:05.611Z,17.60
2019-05-21T14:32:33.584Z,17.60
2019-05-21T14:35:02.652Z,18.10
2019-05-21T14:37:30.672Z,18.70
2019-05-21T14:39:59.223Z,19.10
2019-05-21T14:42:27.513Z,18.50
2019-05-21T14:44:55.592Z,18.30
2019-05-21T14:47:24.031Z,18.90
2019-05-21T14:49:52.218Z,18.80
2019-05-21T14:52:20.755Z,18.60
2019-05-21T14:54:48.906Z,18.90
2019-05-21T14:57:16.954Z,18.60
2019-05-21T14:59:44.906Z,18.40
2019-05-21T15:02:17.651Z,18.00
2019-05-21T15:04:45.975Z,18.10
2019-05-21T15:07:14.052Z,18.70
2019-05-21T15:09:42.214Z,19.20
2019-05-21T15:12:10.306Z,18.90
2019-05-21T15:14:39.733Z,18.40
2019-05-21T15:17:08.083Z,18.80
2019-05-21T15:19:36.603Z,18.60
2019-05-21T15:22:04.786Z,19.20
2019-05-21T15:24:33.736Z,19.90
2019-05-21T15:27:01.996Z,20.00
2019-05-21T15:29:29.958Z,19.60
2019-05-21T15:31:58.606Z,19.30
2019-05-21T15:34:26.848Z,19.20
2019-05-21T15:36:55.219Z,18.90
2019-05-21T15:39:23.456Z,18.80
2019-05-21T15:41:52.259Z,19.00
2019-05-21T15:44:20.573Z,19.40
2019-05-21T15:46:50.656Z,19.60
2019-05-21T15:49:33.338Z,19.10
2019-05-21T15:51:48.982Z,19.00
2019-05-21T15:54:17.152Z,19.00
2019-05-21T15:56:45.365Z,19.30
2019-05-21T15:59:13.824Z,19.50
2019-05-21T16:01:42.279Z,19.20
2019-05-21T16:04:11.224Z,19.40
2019-05-21T16:06:39.526Z,19.10
2019-05-21T16:09:08.744Z,19.30
2019-05-21T16:11:37.209Z,19.80
2019-05-21T16:14:06.173Z,20.30
2019-05-21T16:16:34.485Z,20.10
2019-05-21T16:19:02.931Z,19.80
2019-05-21T16:21:31.519Z,19.90
2019-05-21T16:23:59.619Z,19.50
2019-05-21T16:26:27.656Z,19.90
2019-05-21T16:28:56.291Z,20.00
2019-05-21T16:31:24.371Z,19.80
2019-05-21T16:33:52.678Z,19.30
2019-05-21T16:36:21.181Z,18.60
2019-05-21T16:38:49.071Z,18.60
2019-05-21T16:41:17.025Z,18.00
2019-05-21T16:43:44.965Z,18.10
2019-05-21T16:46:12.941Z,18.30
2019-05-21T16:48:41.872Z,19.00
2019-05-21T16:51:10.851Z,19.00
2019-05-21T16:53:38.985Z,18.90
2019-05-21T16:56:08.616Z,19.00
2019-05-21T16:58:36.897Z,18.60
2019-05-21T17:01:06.999Z,18.10
2019-05-21T17:03:36.594Z,17.90
2019-05-21T17:06:04.792Z,17.60
2019-05-21T17:08:33.928Z,17.50
2019-05-21T17:11:02.217Z,17.20
2019-05-21T17:13:30.166Z,16.80
2019-05-21T17:15:58.229Z,16.60
2019-05-21T17:18:27.527Z,16.40
2019-05-21T17:20:56.002Z,16.00
2019-05-21T17:23:24.585Z,15.70
2019-05-21T17:25:52.547Z,15.50
2019-05-21T17:28:21.334Z,15.10
2019-05-21T17:30:49.859Z,15.00
2019-05-21T17:33:18.840Z,15.00
2019-05-21T17:35:47.324Z,14.90
2019-05-21T17:38:16.064Z,14.80
2019-05-21T17:40:44.372Z,14.70
2019-05-21T17:43:12.747Z,14.50
2019-05-21T17:45:42.355Z,14.40
2019-05-21T17:48:11.358Z,14.20
2019-05-21T17:50:39.894Z,14.10
2019-05-21T17:53:08.980Z,14.00
2019-05-21T17:55:37.050Z,13.90
2019-05-21T17:58:05.198Z,14.00
2019-05-21T18:00:51.071Z,14.00
2019-05-21T18:03:19.279Z,13.90
2019-05-21T18:05:48.240Z,13.80
2019-05-21T18:08:17.303Z,13.80
2019-05-21T18:10:46.254Z,13.80
2019-05-21T18:13:15.912Z,13.80
2019-05-21T18:15:44.936Z,13.60
2019-05-21T18:18:12.973Z,13.60
2019-05-21T18:20:41.621Z,13.60
2019-05-21T18:23:10.510Z,13.60
2019-05-21T18:25:38.554Z,13.70
2019-05-21T18:28:06.862Z,13.80
2019-05-21T18:30:34.932Z,13.80
2019-05-21T18:33:03.441Z,13.70
2019-05-21T18:35:32.574Z,13.50
2019-05-21T18:38:00.636Z,13.40
2019-05-21T18:40:29.270Z,13.40
2019-05-21T18:42:57.352Z,13.30
2019-05-21T18:45:25.539Z,13.30
2019-05-21T18:47:53.779Z,13.40
2019-05-21T18:50:34.734Z,13.30
2019-05-21T18:52:52.857Z,13.10
2019-05-21T18:55:20.874Z,13.00
2019-05-21T18:57:49.363Z,12.90
2019-05-21T19:00:17.852Z,12.80
2019-05-21T19:02:46.533Z,12.80
2019-05-21T19:05:14.716Z,12.60
2019-05-21T19:07:43.084Z,12.40
2019-05-21T19:10:11.519Z,12.30
2019-05-21T19:12:40.156Z,12.20
2019-05-21T19:15:09.094Z,12.00
2019-05-21T19:17:37.538Z,11.90
2019-05-21T19:20:06.250Z,11.90
2019-05-21T19:22:35.116Z,11.80
2019-05-21T19:25:03.796Z,11.60
2019-05-21T19:27:32.012Z,11.50
2019-05-21T19:30:00.141Z,11.40
2019-05-21T19:32:28.768Z,11.30
2019-05-21T19:34:57.286Z,11.30
2019-05-21T19:37:25.779Z,11.20
2019-05-21T19:39:53.947Z,11.10
2019-05-21T19:42:22.401Z,11.10
2019-05-21T19:44:50.433Z,11.00
2019-05-21T19:47:18.780Z,10.90
2019-05-21T19:49:47.363Z,10.90
2019-05-21T19:52:16.937Z,10.80
2019-05-21T19:54:45.388Z,10.70
2019-05-21T19:57:24.324Z,10.60
2019-05-21T19:59:53.283Z,10.50
2019-05-21T20:02:22.602Z,10.30
2019-05-21T20:04:51.790Z,10.20
2019-05-21T20:07:21.098Z,10.00
2019-05-21T20:09:51.225Z,10.00
2019-05-21T20:12:20.422Z,10.00
2019-05-21T20:14:48.968Z,9.90
2019-05-21T20:17:18.379Z,9.80
2019-05-21T20:19:49.698Z,9.60
2019-05-21T20:22:18.846Z,9.50
2019-05-21T20:24:48.300Z,9.50
2019-05-21T20:27:18.305Z,9.50
2019-05-21T20:29:47.480Z,9.50
2019-05-21T20:32:16.756Z,9.50
2019-05-21T20:34:45.242Z,9.40
2019-05-21T20:37:18.698Z,9.40
2019-05-21T20:39:49.575Z,9.30
2019-05-21T20:42:20.987Z,9.20
2019-05-21T20:44:49.968Z,9.20
2019-05-21T20:47:19.963Z,9.10
2019-05-21T20:49:51.489Z,9.00
2019-05-21T20:52:47.023Z,8.90
2019-05-21T20:55:21.517Z,8.80
2019-05-21T20:58:06.177Z,8.80
2019-05-21T21:00:41.430Z,8.90
2019-05-21T21:03:12.045Z,8.90
2019-05-21T21:05:50.967Z,8.80
2019-05-21T21:08:38.259Z,8.70
2019-05-21T21:11:19.597Z,8.60
2019-05-21T21:13:48.649Z,8.60
2019-05-21T21:16:17.401Z,8.60
2019-05-21T21:18:45.903Z,8.70
2019-05-21T21:21:14.425Z,8.80
2019-05-21T21:23:43.126Z,8.80
2019-05-21T21:26:12.880Z,8.80
2019-05-21T21:28:41.487Z,8.70
2019-05-21T21:31:09.799Z,8.70
2019-05-21T21:33:38.387Z,8.70
2019-05-21T21:36:06.459Z,8.70
2019-05-21T21:38:38.296Z,8.60
2019-05-21T21:41:07.169Z,8.50
2019-05-21T21:43:35.364Z,8.30
2019-05-21T21:46:03.667Z,8.20
2019-05-21T21:48:31.856Z,8.30
2019-05-21T21:51:01.893Z,8.20
2019-05-21T21:53:30.558Z,8.10
2019-05-21T21:55:58.681Z,7.90
2019-05-21T21:58:26.701Z,7.90
2019-05-21T22:01:26.087Z,7.90
2019-05-21T22:03:58.272Z,7.80
2019-05-21T22:06:29.333Z,7.90
2019-05-21T22:08:58.454Z,7.70
2019-05-21T22:11:26.736Z,7.60
2019-05-21T22:13:55.696Z,7.50
2019-05-21T22:16:24.259Z,7.50
2019-05-21T22:18:52.640Z,7.50
2019-05-21T22:21:20.995Z,7.60
2019-05-21T22:23:50.760Z,7.60
2019-05-21T22:26:19.098Z,7.80
2019-05-21T22:28:47.432Z,7.70
2019-05-21T22:31:15.603Z,7.60
2019-05-21T22:33:43.955Z,7.80
2019-05-21T22:36:12.414Z,7.80
2019-05-21T22:38:41.176Z,7.70
2019-05-21T22:41:10.215Z,7.60
2019-05-21T22:43:39.596Z,7.50
2019-05-21T22:46:07.769Z,7.30
2019-05-21T22:48:36.090Z,7.10
2019-05-21T22:51:04.416Z,6.90
2019-05-21T22:53:32.643Z,6.80
2019-05-21T22:56:00.890Z,7.00
2019-05-21T22:58:29.067Z,7.00
2019-05-21T23:00:57.918Z,7.00
2019-05-21T23:03:28.532Z,7.00
2019-05-21T23:05:56.735Z,6.90
2019-05-21T23:08:25.954Z,6.80
2019-05-21T23:10:54.277Z,6.70
2019-05-21T23:13:22.486Z,6.60
2019-05-21T23:15:52.222Z,6.60
2019-05-21T23:18:20.712Z,6.60
2019-05-21T23:20:49.449Z,6.60
2019-05-21T23:23:18.836Z,6.70
2019-05-21T23:25:46.931Z,6.80
2019-05-21T23:28:15.719Z,6.80
2019-05-21T23:30:43.816Z,6.80
2019-05-21T23:33:13.917Z,6.90
2019-05-21T23:35:42.562Z,7.10
2019-05-21T23:38:10.960Z,7.20
2019-05-21T23:40:39.379Z,7.30
2019-05-21T23:43:09.504Z,7.50
2019-05-21T23:45:37.780Z,7.70
2019-05-21T23:48:08.252Z,7.90
2019-05-21T23:50:37.274Z,8.00
2019-05-21T23:53:06.932Z,8.10
2019-05-21T23:55:35.342Z,8.20
2019-05-21T23:58:03.870Z,8.20
